createdAt,value
2022-12-07T00:00:54.434Z,100211.50
2022-12-07T00:03:21.917Z,100199.16
2022-12-07T00:05:49.493Z,100196.50
2022-12-07T00:08:17.012Z,100197.38
2022-12-07T00:10:45.784Z,100196.44
2022-12-07T00:13:13.229Z,100201.66
2022-12-07T00:15:40.665Z,100204.38
2022-12-07T00:18:08.112Z,100202.59
2022-12-07T00:20:35.571Z,100205.22
2022-12-07T00:23:03.013Z,100201.72
2022-12-07T00:25:30.461Z,100192.91
2022-12-07T00:27:59.613Z,100192.91
2022-12-07T00:30:27.069Z,100191.22
2022-12-07T00:32:54.542Z,100195.63
2022-12-07T00:35:21.993Z,100190.44
2022-12-07T00:37:49.453Z,100196.56
2022-12-07T00:40:16.915Z,100190.34
2022-12-07T00:42:44.361Z,100188.56
2022-12-07T00:45:13.237Z,100175.38
2022-12-07T00:47:40.684Z,100165.66
2022-12-07T00:50:08.935Z,100165.66
2022-12-07T00:52:36.371Z,100164.78
2022-12-07T00:55:03.888Z,100163.91
2022-12-07T00:57:32.279Z,100170.94
2022-12-07T01:00:01.526Z,100164.78
2022-12-07T01:02:30.528Z,100160.44
2022-12-07T01:04:57.968Z,100158.63
2022-12-07T01:07:25.411Z,100158.09
2022-12-07T01:09:52.829Z,100162.16
2022-12-07T01:12:20.281Z,100162.16
2022-12-07T01:14:47.738Z,100167.34
2022-12-07T01:17:15.208Z,100170.00
2022-12-07T01:19:44.087Z,100163.84
2022-12-07T01:22:11.529Z,100177.06
2022-12-07T01:24:38.978Z,100170.00
2022-12-07T01:27:06.430Z,100167.34
2022-12-07T01:29:33.873Z,100177.94
2022-12-07T01:32:01.324Z,100170.06
2022-12-07T01:34:28.759Z,100165.66
2022-12-07T01:36:57.644Z,100167.34
2022-12-07T01:39:25.077Z,100160.38
2022-12-07T01:41:52.572Z,100157.72
2022-12-07T01:44:22.177Z,100150.56
2022-12-07T01:46:50.327Z,100097.16
2022-12-07T01:49:22.355Z,100164.72
2022-12-07T01:51:49.775Z,100156.78
2022-12-07T01:54:18.553Z,100157.66
2022-12-07T01:56:49.072Z,100162.06
2022-12-07T01:59:16.966Z,100148.78
2022-12-07T02:01:44.462Z,100148.00
2022-12-07T02:04:12.101Z,100093.59
2022-12-07T02:06:39.549Z,100156.78
2022-12-07T02:09:07.005Z,100145.34
2022-12-07T02:11:35.795Z,100146.22
2022-12-07T02:14:03.233Z,100073.06
2022-12-07T02:16:34.270Z,100137.34
2022-12-07T02:19:11.188Z,100142.63
2022-12-07T02:21:42.037Z,100076.88
2022-12-07T02:24:16.786Z,100071.59
2022-12-07T02:27:19.415Z,100142.63
2022-12-07T02:29:49.456Z,100137.03
2022-12-07T02:32:18.256Z,100135.63
2022-12-07T02:34:49.819Z,100135.63
2022-12-07T02:37:22.082Z,100132.13
2022-12-07T02:39:51.634Z,100133.94
2022-12-07T02:42:20.859Z,100128.72
2022-12-07T02:44:49.660Z,100068.72
2022-12-07T02:47:18.264Z,100128.66
2022-12-07T02:49:45.688Z,100089.28
2022-12-07T02:52:13.176Z,100120.72
2022-12-07T02:54:40.640Z,100121.63
2022-12-07T02:57:20.149Z,100119.78
2022-12-07T02:59:53.767Z,100102.81
2022-12-07T03:02:25.813Z,100116.34
2022-12-07T03:04:55.096Z,100030.00
2022-12-07T03:07:26.937Z,100110.75
2022-12-07T03:09:57.716Z,100118.22
2022-12-07T03:12:27.482Z,100042.91
2022-12-07T03:14:59.050Z,100116.50
2022-12-07T03:17:27.100Z,100121.78
2022-12-07T03:19:55.364Z,100115.66
2022-12-07T03:22:22.825Z,100113.84
2022-12-07T03:24:53.169Z,100112.16
2022-12-07T03:27:22.256Z,100068.50
2022-12-07T03:29:51.312Z,99999.00
2022-12-07T03:32:22.675Z,100089.84
2022-12-07T03:34:51.873Z,100106.00
2022-12-07T03:37:20.518Z,100106.06
2022-12-07T03:39:50.802Z,100109.66
2022-12-07T03:42:18.236Z,100108.78
2022-12-07T03:44:45.672Z,100108.78
2022-12-07T03:47:14.408Z,100036.16
2022-12-07T03:49:46.366Z,100111.50
2022-12-07T03:52:16.355Z,100067.72
2022-12-07T03:54:45.909Z,100102.34
2022-12-07T03:57:13.358Z,100108.94
2022-12-07T03:59:40.840Z,100010.63
2022-12-07T04:02:08.783Z,100118.69
2022-12-07T04:04:36.716Z,100112.53
2022-12-07T04:07:05.476Z,100111.66
2022-12-07T04:09:32.949Z,100109.00
2022-12-07T04:12:00.395Z,100109.00
2022-12-07T04:14:27.846Z,100102.91
2022-12-07T04:16:57.342Z,100102.91
2022-12-07T04:19:25.727Z,100089.41
2022-12-07T04:21:53.158Z,100107.31
2022-12-07T04:24:21.986Z,100109.97
2022-12-07T04:26:49.640Z,100105.53
2022-12-07T04:29:17.293Z,100108.19
2022-12-07T04:31:44.918Z,100105.53
2022-12-07T04:34:12.581Z,100062.03
2022-12-07T04:36:40.040Z,100114.38
2022-12-07T04:39:07.933Z,100115.25
2022-12-07T04:41:36.744Z,100102.09
2022-12-07T04:44:08.085Z,100116.19
2022-12-07T04:46:35.567Z,100100.34
2022-12-07T04:49:03.015Z,100108.25
2022-12-07T04:51:31.051Z,100049.44
2022-12-07T04:53:58.535Z,100117.97
2022-12-07T04:56:26.200Z,100105.69
2022-12-07T04:58:55.421Z,100107.38
2022-12-07T05:01:23.519Z,100110.97
2022-12-07T05:06:13.561Z,100101.38
2022-12-07T05:08:41.396Z,100040.72
2022-12-07T05:11:08.928Z,100111.06
2022-12-07T05:13:36.517Z,100093.47
2022-12-07T05:16:05.779Z,100097.91
2022-12-07T05:18:33.254Z,100099.53
2022-12-07T05:21:00.668Z,100100.47
2022-12-07T05:23:28.260Z,100099.53
2022-12-07T05:25:55.685Z,100090.97
2022-12-07T05:28:23.135Z,100107.31
2022-12-07T05:30:53.393Z,100098.38
2022-12-07T05:33:24.445Z,100106.22
2022-12-07T05:35:51.890Z,100102.69
2022-12-07T05:38:19.341Z,100099.09
2022-12-07T05:40:46.788Z,100099.94
2022-12-07T05:43:14.233Z,100035.00
2022-12-07T05:45:41.716Z,100107.72
2022-12-07T05:48:09.217Z,100094.53
2022-12-07T05:50:37.957Z,100102.38
2022-12-07T05:53:05.446Z,100097.09
2022-12-07T05:55:32.887Z,100078.16
2022-12-07T05:58:18.117Z,100072.09
2022-12-07T06:00:49.506Z,100083.72
2022-12-07T06:03:18.872Z,100086.28
2022-12-07T06:05:47.729Z,100086.88
2022-12-07T06:08:15.742Z,100086.97
2022-12-07T06:10:43.428Z,100090.41
2022-12-07T06:13:09.973Z,100028.81
2022-12-07T06:15:37.676Z,100023.69
2022-12-07T06:18:05.224Z,100089.28
2022-12-07T06:20:32.654Z,100102.50
2022-12-07T06:23:01.431Z,100085.03
2022-12-07T06:25:28.858Z,100093.56
2022-12-07T06:27:56.525Z,100102.38
2022-12-07T06:30:23.959Z,100090.00
2022-12-07T06:32:51.505Z,100100.59
2022-12-07T06:35:18.960Z,100089.94
2022-12-07T06:37:46.391Z,100095.97
2022-12-07T06:40:15.685Z,100093.25
2022-12-07T06:42:43.124Z,100094.03
2022-12-07T06:45:11.448Z,100098.31
2022-12-07T06:47:41.062Z,100100.84
2022-12-07T06:50:11.490Z,100102.56
2022-12-07T06:52:38.993Z,100107.78
2022-12-07T06:55:07.395Z,100099.84
2022-12-07T06:57:36.166Z,100097.28
2022-12-07T07:00:04.477Z,100039.25
2022-12-07T07:02:32.215Z,100112.69
2022-12-07T07:04:59.721Z,100107.31
2022-12-07T07:07:27.144Z,100108.94
2022-12-07T07:09:54.581Z,100110.56
2022-12-07T07:12:22.018Z,100109.66
2022-12-07T07:14:50.785Z,100110.41
2022-12-07T07:17:18.223Z,100109.56
2022-12-07T07:19:45.669Z,100122.63
2022-12-07T07:22:13.088Z,100113.00
2022-12-07T07:24:40.536Z,100120.78
2022-12-07T07:27:07.962Z,100122.47
2022-12-07T07:29:35.414Z,100118.97
2022-12-07T07:32:06.888Z,100125.75
2022-12-07T07:34:34.543Z,100124.00
2022-12-07T07:37:01.974Z,100128.47
2022-12-07T07:39:29.424Z,100132.81
2022-12-07T07:41:56.879Z,100128.25
2022-12-07T07:44:24.323Z,100134.28
2022-12-07T07:46:51.770Z,100132.44
2022-12-07T07:49:20.574Z,100135.53
2022-12-07T07:51:48.004Z,100136.31
2022-12-07T07:54:15.501Z,100134.38
2022-12-07T07:56:42.940Z,100131.63
2022-12-07T07:59:10.431Z,100136.84
2022-12-07T08:01:37.946Z,100136.84
2022-12-07T08:04:05.574Z,100138.63
2022-12-07T08:06:34.352Z,100140.22
2022-12-07T08:09:01.834Z,100139.41
2022-12-07T08:11:29.525Z,100140.38
2022-12-07T08:13:57.154Z,100142.16
2022-12-07T08:16:24.722Z,100145.66
2022-12-07T08:18:52.155Z,100136.84
2022-12-07T08:21:19.597Z,100143.00
2022-12-07T08:23:48.386Z,100145.56
2022-12-07T08:26:16.684Z,100152.66
2022-12-07T08:28:44.324Z,100094.63
2022-12-07T08:31:13.383Z,100151.78
2022-12-07T08:33:41.049Z,100076.56
2022-12-07T08:36:09.992Z,100148.31
2022-12-07T08:38:37.565Z,100152.72
2022-12-07T08:41:06.583Z,100153.59
2022-12-07T08:43:34.134Z,100148.31
2022-12-07T08:46:06.116Z,100154.63
2022-12-07T08:48:33.634Z,100143.78
2022-12-07T08:51:01.091Z,100143.56
2022-12-07T08:53:28.983Z,100137.63
2022-12-07T08:55:56.452Z,100142.47
2022-12-07T08:58:25.237Z,100148.38
2022-12-07T09:00:52.701Z,100148.16
2022-12-07T09:03:20.124Z,100143.38
2022-12-07T09:05:47.668Z,100139.56
2022-12-07T09:08:15.269Z,100141.91
2022-12-07T09:10:42.889Z,100150.44
2022-12-07T09:13:10.339Z,100154.66
2022-12-07T09:15:39.208Z,100155.25
2022-12-07T09:18:06.747Z,100156.09
2022-12-07T09:20:34.784Z,100162.25
2022-12-07T09:23:02.246Z,100160.38
2022-12-07T09:25:30.163Z,100166.44
2022-12-07T09:27:58.452Z,100072.81
2022-12-07T09:30:25.984Z,100163.56
2022-12-07T09:32:55.894Z,100065.97
2022-12-07T09:35:23.372Z,100164.34
2022-12-07T09:37:50.834Z,100158.03
2022-12-07T09:40:18.431Z,100100.53
2022-12-07T09:42:46.894Z,100097.63
2022-12-07T09:45:16.341Z,100101.66
2022-12-07T09:47:43.794Z,100167.50
2022-12-07T09:50:16.715Z,100084.16
2022-12-07T09:52:44.448Z,100153.44
2022-12-07T09:55:13.619Z,100158.47
2022-12-07T09:57:41.135Z,100152.06
2022-12-07T10:00:12.528Z,100154.56
2022-12-07T10:02:42.669Z,100152.69
2022-12-07T10:05:12.957Z,100150.03
2022-12-07T10:07:41.676Z,100149.97
2022-12-07T10:10:15.092Z,100148.84
2022-12-07T10:12:55.007Z,100152.19
2022-12-07T10:15:22.624Z,100148.66
2022-12-07T10:17:50.714Z,100147.72
2022-12-07T10:20:24.038Z,100085.31
2022-12-07T10:23:00.416Z,100150.13
2022-12-07T10:25:29.626Z,100059.53
2022-12-07T10:28:01.442Z,100129.88
2022-12-07T10:30:29.037Z,100136.22
2022-12-07T10:32:56.484Z,100132.44
2022-12-07T10:35:26.399Z,100134.22
2022-12-07T10:37:54.353Z,100129.00
2022-12-07T10:40:29.241Z,100130.03
2022-12-07T10:43:04.327Z,100122.97
2022-12-07T10:45:31.887Z,100130.66
2022-12-07T10:48:02.720Z,99969.13
2022-12-07T10:50:44.114Z,100125.19
2022-12-07T10:53:39.161Z,100125.13
2022-12-07T10:56:26.153Z,100129.41
2022-12-07T10:59:01.615Z,100125.88
2022-12-07T11:01:31.465Z,100058.59
2022-12-07T11:04:09.700Z,100125.19
2022-12-07T11:06:39.031Z,100054.75
2022-12-07T11:09:51.930Z,100097.56
2022-12-07T11:12:18.431Z,100110.38
2022-12-07T11:14:49.029Z,100115.69
2022-12-07T11:17:18.243Z,100085.84
2022-12-07T11:19:53.068Z,100104.25
2022-12-07T11:22:22.226Z,100106.81
2022-12-07T11:24:52.404Z,100108.59
2022-12-07T11:27:24.088Z,100096.38
2022-12-07T11:29:57.624Z,100097.06
2022-12-07T11:32:33.709Z,100064.66
2022-12-07T11:35:05.754Z,100027.56
2022-12-07T11:37:38.175Z,100097.69
2022-12-07T11:40:11.373Z,100026.56
2022-12-07T11:42:43.036Z,100091.19
2022-12-07T11:45:14.991Z,100056.03
2022-12-07T11:47:45.937Z,100084.88
2022-12-07T11:50:28.142Z,100000.84
2022-12-07T11:52:57.741Z,100077.69
2022-12-07T11:55:42.588Z,99987.28
2022-12-07T11:58:21.546Z,99999.94
2022-12-07T12:00:49.115Z,100075.88
2022-12-07T12:03:17.987Z,100066.16
2022-12-07T12:05:45.541Z,100067.34
2022-12-07T12:11:05.053Z,100067.41
2022-12-07T12:17:01.268Z,100056.75
2022-12-07T12:19:32.243Z,100056.75
2022-12-07T12:22:03.295Z,100055.81
2022-12-07T12:24:31.151Z,100030.16
2022-12-07T12:27:01.029Z,100054.88
2022-12-07T12:29:32.207Z,99983.00
2022-12-07T12:32:09.399Z,100060.16
2022-12-07T12:34:46.814Z,100050.59
2022-12-07T12:37:46.001Z,100055.66
2022-12-07T12:40:46.880Z,100053.81
2022-12-07T12:43:47.140Z,100053.00
2022-12-07T12:46:51.522Z,100042.47
2022-12-07T12:50:01.084Z,100048.63
2022-12-07T12:52:54.574Z,100043.84
2022-12-07T12:55:29.076Z,100042.69
2022-12-07T12:58:39.322Z,100034.69
2022-12-07T13:01:25.178Z,100031.34
2022-12-07T13:03:54.209Z,100032.03
2022-12-07T13:06:22.613Z,100029.06
2022-12-07T13:08:51.367Z,100029.38
2022-12-07T13:11:19.844Z,100025.63
2022-12-07T13:13:47.300Z,100029.81
2022-12-07T13:16:41.145Z,100024.09
2022-12-07T13:20:03.207Z,100032.81
2022-12-07T13:22:52.926Z,100034.31
2022-12-07T13:25:25.625Z,100032.53
2022-12-07T13:27:56.481Z,100027.16
2022-12-07T13:30:24.212Z,100022.72
2022-12-07T13:32:54.863Z,100021.88
2022-12-07T13:35:33.106Z,100025.28
2022-12-07T13:38:00.688Z,100025.44
2022-12-07T13:40:29.956Z,100000.84
2022-12-07T13:43:00.642Z,100013.00
2022-12-07T13:45:48.931Z,100005.03
2022-12-07T13:48:18.107Z,100002.41
2022-12-07T13:50:48.972Z,99992.56
2022-12-07T13:53:20.949Z,99994.97
2022-12-07T13:55:54.360Z,99997.53
2022-12-07T13:58:22.374Z,99940.88
2022-12-07T14:00:49.897Z,99995.78
2022-12-07T14:03:32.346Z,99904.19
2022-12-07T14:06:08.782Z,99969.13
2022-12-07T14:08:36.211Z,99983.31
2022-12-07T14:11:04.994Z,99987.66
2022-12-07T14:13:34.823Z,99947.09
2022-12-07T14:16:02.578Z,99909.47
2022-12-07T14:18:30.459Z,100000.09
2022-12-07T14:21:07.434Z,100000.00
2022-12-07T14:23:34.859Z,100002.72
2022-12-07T14:26:08.989Z,99993.06
2022-12-07T14:28:37.617Z,99983.69
2022-12-07T14:31:05.332Z,99987.75
2022-12-07T14:33:32.848Z,99985.09
2022-12-07T14:36:00.312Z,99978.97
2022-12-07T14:38:27.978Z,99978.97
2022-12-07T14:40:55.533Z,99984.09
2022-12-07T14:43:24.289Z,99992.03
2022-12-07T14:45:51.797Z,99982.38
2022-12-07T14:54:15.519Z,99982.53
2022-12-07T14:56:44.646Z,99981.72
2022-12-07T14:59:13.771Z,99980.94
2022-12-07T15:01:41.204Z,99983.50
2022-12-07T15:04:08.780Z,99990.59
2022-12-07T15:06:36.295Z,99987.84
2022-12-07T15:09:04.453Z,99992.22
2022-12-07T15:11:31.912Z,99984.38
2022-12-07T15:14:12.212Z,99979.06
2022-12-07T15:17:07.227Z,99988.78
2022-12-07T15:19:30.086Z,99980.84
2022-12-07T15:21:57.963Z,99907.59
2022-12-07T15:24:25.893Z,99983.41
2022-12-07T15:26:53.489Z,99979.16
2022-12-07T15:29:23.291Z,99980.84
2022-12-07T15:31:57.427Z,99979.06
2022-12-07T15:34:25.970Z,99979.16
2022-12-07T15:36:53.416Z,99973.84
2022-12-07T15:39:20.867Z,99972.03
2022-12-07T15:41:48.302Z,99964.09
2022-12-07T15:44:33.622Z,99968.56
2022-12-07T15:47:02.403Z,99964.94
2022-12-07T15:49:29.826Z,99965.03
2022-12-07T15:51:57.283Z,99966.81
2022-12-07T15:54:25.819Z,99913.13
2022-12-07T15:56:53.331Z,99894.84
2022-12-07T15:59:20.752Z,99965.03
2022-12-07T16:01:48.301Z,99965.81
2022-12-07T16:04:17.088Z,99970.25
2022-12-07T16:06:45.256Z,99971.19
2022-12-07T16:09:12.711Z,99969.47
2022-12-07T16:11:40.171Z,99964.34
2022-12-07T16:14:07.582Z,99967.97
2022-12-07T16:16:35.064Z,99965.44
2022-12-07T16:19:03.643Z,99948.38
2022-12-07T16:21:32.409Z,99962.03
2022-12-07T16:24:00.193Z,99958.63
2022-12-07T16:26:27.645Z,99965.81
2022-12-07T16:28:55.761Z,99964.09
2022-12-07T16:31:24.203Z,99965.03
2022-12-07T16:33:51.710Z,99928.69
2022-12-07T16:36:39.936Z,99959.41
2022-12-07T16:39:07.889Z,99925.34
2022-12-07T16:41:35.358Z,99885.41
2022-12-07T16:44:03.399Z,99967.47
2022-12-07T16:46:30.933Z,99964.03
2022-12-07T16:48:58.404Z,99969.50
2022-12-07T16:51:25.840Z,99963.44
2022-12-07T16:53:54.201Z,99908.03
2022-12-07T16:56:23.012Z,99910.69
2022-12-07T16:58:50.656Z,99884.91
2022-12-07T17:01:18.935Z,99904.69
2022-12-07T17:03:46.837Z,99886.59
2022-12-07T17:06:15.724Z,99912.38
2022-12-07T17:08:43.348Z,99932.88
2022-12-07T17:11:14.554Z,99948.16
2022-12-07T17:14:01.409Z,99949.09
2022-12-07T17:16:29.035Z,99875.19
2022-12-07T17:18:59.197Z,99943.09
2022-12-07T17:21:26.460Z,99941.59
2022-12-07T17:23:54.148Z,99939.03
2022-12-07T17:26:22.573Z,99903.00
2022-12-07T17:28:51.345Z,99931.16
2022-12-07T17:31:19.894Z,99869.88
2022-12-07T17:33:47.399Z,99927.75
2022-12-07T17:36:15.938Z,99902.31
2022-12-07T17:38:43.523Z,99926.13
2022-12-07T17:41:12.280Z,99922.72
2022-12-07T17:43:40.168Z,99921.88
2022-12-07T17:46:10.367Z,99878.78
2022-12-07T17:48:37.880Z,99925.53
2022-12-07T17:51:23.027Z,99922.97
2022-12-07T17:53:51.472Z,99910.84
2022-12-07T17:56:34.170Z,99921.25
2022-12-07T17:59:01.634Z,99903.16
2022-12-07T18:01:34.550Z,99910.16
2022-12-07T18:04:02.538Z,99918.00
2022-12-07T18:06:30.245Z,99923.31
2022-12-07T18:08:57.781Z,99908.38
2022-12-07T18:11:25.218Z,99904.03
2022-12-07T18:13:52.711Z,99897.97
2022-12-07T18:16:21.464Z,99904.22
2022-12-07T18:18:52.866Z,99906.84
2022-12-07T18:21:22.040Z,99905.13
2022-12-07T18:23:50.091Z,99899.91
2022-12-07T18:26:18.104Z,99839.50
2022-12-07T18:28:45.652Z,99859.97
2022-12-07T18:31:15.354Z,99844.88
2022-12-07T18:33:43.301Z,99901.13
2022-12-07T18:36:12.554Z,99862.88
2022-12-07T18:38:40.548Z,99903.00
2022-12-07T18:41:08.300Z,99893.34
2022-12-07T18:43:35.732Z,99898.56
2022-12-07T18:46:03.207Z,99888.06
2022-12-07T18:48:30.705Z,99889.00
2022-12-07T18:51:01.581Z,99814.56
2022-12-07T18:53:30.439Z,99889.84
2022-12-07T18:56:04.220Z,99860.31
2022-12-07T18:58:31.703Z,99889.94
2022-12-07T19:00:59.233Z,99883.88
2022-12-07T19:03:32.790Z,99884.72
2022-12-07T19:06:01.887Z,99890.09
2022-12-07T19:08:30.748Z,99884.22
2022-12-07T19:11:23.375Z,99888.50
2022-12-07T19:13:51.341Z,99882.34
2022-12-07T19:16:18.858Z,99885.94
2022-12-07T19:18:50.976Z,99885.06
2022-12-07T19:21:18.995Z,99842.47
2022-12-07T19:23:47.792Z,99839.75
2022-12-07T19:26:15.276Z,99880.72
2022-12-07T19:28:42.745Z,99879.03
2022-12-07T19:31:11.046Z,99841.38
2022-12-07T19:33:38.537Z,99816.59
2022-12-07T19:36:06.569Z,99874.75
2022-12-07T19:38:34.169Z,99876.56
2022-12-07T19:41:06.812Z,99879.09
2022-12-07T19:43:34.844Z,99813.34
2022-12-07T19:46:05.761Z,99835.41
2022-12-07T19:48:33.441Z,99865.19
2022-12-07T19:51:04.009Z,99863.41
2022-12-07T19:53:32.910Z,99867.84
2022-12-07T19:56:00.537Z,99866.97
2022-12-07T19:58:29.318Z,99859.03
2022-12-07T20:00:56.819Z,99853.81
2022-12-07T20:03:24.303Z,99854.69
2022-12-07T20:05:51.796Z,99845.97
2022-12-07T20:08:19.376Z,99841.47
2022-12-07T20:10:47.661Z,99829.28
2022-12-07T20:13:29.231Z,99824.00
2022-12-07T20:16:18.054Z,99824.91
2022-12-07T20:18:45.677Z,99739.34
2022-12-07T20:21:13.314Z,99824.00
2022-12-07T20:23:40.815Z,99815.28
2022-12-07T20:26:11.259Z,99783.84
2022-12-07T20:28:38.749Z,99812.72
2022-12-07T20:31:07.900Z,99812.72
2022-12-07T20:33:35.410Z,99805.72
2022-12-07T20:36:03.089Z,99805.72
2022-12-07T20:38:32.086Z,99818.97
2022-12-07T20:41:00.872Z,99819.78
2022-12-07T20:43:28.537Z,99810.16
2022-12-07T20:45:56.019Z,99807.44
2022-12-07T20:48:24.830Z,99804.78
2022-12-07T20:50:52.295Z,99799.59
2022-12-07T20:53:19.782Z,99796.06
2022-12-07T20:55:47.220Z,99797.03
2022-12-07T20:58:14.692Z,99807.50
2022-12-07T21:00:42.146Z,99799.66
2022-12-07T21:03:10.244Z,99793.59
2022-12-07T21:05:39.139Z,99791.81
2022-12-07T21:08:06.645Z,99788.31
2022-12-07T21:10:34.232Z,99789.16
2022-12-07T21:13:01.708Z,99786.63
2022-12-07T21:15:29.238Z,99787.47
2022-12-07T21:17:56.709Z,99749.81
2022-12-07T21:20:24.205Z,99787.56
2022-12-07T21:22:53.023Z,99791.91
2022-12-07T21:25:20.464Z,99790.22
2022-12-07T21:27:47.912Z,99790.22
2022-12-07T21:30:15.460Z,99784.06
2022-12-07T21:32:42.912Z,99789.44
2022-12-07T21:35:10.669Z,99788.56
2022-12-07T21:37:38.920Z,99785.91
2022-12-07T21:40:15.123Z,99774.50
2022-12-07T21:42:45.369Z,99778.00
2022-12-07T21:45:12.886Z,99763.94
2022-12-07T21:47:40.343Z,99760.44
2022-12-07T21:50:09.031Z,99732.44
2022-12-07T21:52:36.472Z,99763.06
2022-12-07T21:55:04.698Z,99763.94
2022-12-07T21:57:33.875Z,99748.16
2022-12-07T22:00:01.326Z,99752.50
2022-12-07T22:02:28.798Z,99750.81
2022-12-07T22:04:56.443Z,99746.50
2022-12-07T22:07:24.506Z,99758.03
2022-12-07T22:09:52.007Z,99753.63
2022-12-07T22:12:19.433Z,99745.78
2022-12-07T22:15:06.390Z,99755.41
2022-12-07T22:17:34.103Z,99744.88
2022-12-07T22:20:01.569Z,99745.78
2022-12-07T22:22:29.046Z,99744.81
2022-12-07T22:24:57.026Z,99742.22
2022-12-07T22:27:24.462Z,99741.38
2022-12-07T22:29:53.230Z,99738.72
2022-12-07T22:32:47.368Z,99737.19
2022-12-07T22:35:08.672Z,99743.25
2022-12-07T22:37:36.092Z,99743.25
2022-12-07T22:40:03.572Z,99668.16
2022-12-07T22:42:31.040Z,99738.91
2022-12-07T22:44:59.915Z,99734.47
2022-12-07T22:47:27.514Z,99742.31
2022-12-07T22:49:55.490Z,99746.00
2022-12-07T22:52:22.968Z,99744.19
2022-12-07T22:54:50.461Z,99734.47
2022-12-07T22:57:17.955Z,99733.69
2022-12-07T22:59:45.464Z,99729.28
2022-12-07T23:02:14.265Z,99736.34
2022-12-07T23:04:41.795Z,99732.00
2022-12-07T23:07:09.281Z,99717.84
2022-12-07T23:09:36.721Z,99719.66
2022-12-07T23:12:21.832Z,99707.59
2022-12-07T23:14:49.286Z,99710.94
2022-12-07T23:17:18.042Z,99709.16
2022-12-07T23:19:45.752Z,99705.66
2022-12-07T23:22:13.180Z,99703.00
2022-12-07T23:24:40.640Z,99705.66
2022-12-07T23:27:08.091Z,99699.41
2022-12-07T23:29:35.825Z,99692.44
2022-12-07T23:32:03.382Z,99689.88
2022-12-07T23:34:32.318Z,99685.53
2022-12-07T23:36:59.820Z,99689.00
2022-12-07T23:39:27.298Z,99689.00
2022-12-07T23:41:54.764Z,99680.25
2022-12-07T23:44:22.314Z,99683.72
2022-12-07T23:46:49.826Z,99684.69
2022-12-07T23:49:18.434Z,99676.75
2022-12-07T23:51:47.223Z,99669.78
2022-12-07T23:54:14.741Z,99670.59
2022-12-07T23:56:43.164Z,99671.47
2022-12-07T23:59:11.875Z,99665.31
